logo
Rechercher aéroport 
image banner adimage banner adimage banner ad
image banner ad

YQNS - Queenstown

Situé à Queenstown, Australia

ICAO - YQNS, IATA - UEE

Données fournies par Airmate  

Information générale

Coordonnées: S42°4'33" E145°31'52"
Élévation : 867 feet MSL.
Variation magnétique : 14° East
Voir autres Aéroports à Tasmania

Données opérationnelles

Special qualification required
Heure actuelle UTC:
Heure actuelle locale:
Météo à : - ( 0 km )
METAR: KNLC 171556Z 35014KT 10SM FEW180 23/08 A2984 RMK AO2 SLP102 RH/39 T02330083
Voir NOTAMs / SUP AIP / TFR affectant cet aéroport [VIEW]
Fréquences de communication: [VIEW]

Pistes:

Identifiant RWYQFULongueur (ft)Largeur (ft)SurfaceLDA (ft)
09410198X
27410198X

Coordonnées de l'aéroport

Adresse: Queenstown Australia

Vue satellite de YQNS